Time;durP1;ratioP1;P1;durP2;ratioP2;P2;SDS_P1;SDS_P2;PMS_P1;PMS_P2;Temp;Humidity;BMP_temperature;BMP_pressure;BME280_temperature;BME280_humidity;BME280_pressure;Samples;Min_cycle;Max_cycle;Signal;HPM_P1;HPM_P2
2023/09/29 00:00:48;;;;;;;4.30;2.40;;;;;;;25.83;29.36;101191.50;102786;1297;63340;-81
2023/09/29 00:03:15;;;;;;;5.70;3.00;;;;;;;25.83;29.51;101199.98;102709;1297;62320;-81
2023/09/29 00:05:44;;;;;;;4.70;2.80;;;;;;;25.83;29.48;101201.08;102775;1298;62118;-82
2023/09/29 00:08:17;;;;;;;4.20;2.80;;;;;;;25.82;29.61;101203.25;102720;1295;66555;-82
2023/09/29 00:10:45;;;;;;;4.60;2.80;;;;;;;25.82;29.66;101203.45;102810;1293;62246;-81
2023/09/29 00:13:11;;;;;;;4.80;2.70;;;;;;;25.82;29.57;101203.84;102818;1294;62103;-81
2023/09/29 00:15:37;;;;;;;4.70;2.80;;;;;;;25.82;29.62;101202.96;102779;1293;62198;-82
2023/09/29 00:18:09;;;;;;;6.90;3.00;;;;;;;25.82;29.48;101203.67;102773;1297;63459;-82
2023/09/29 00:20:35;;;;;;;5.60;3.00;;;;;;;25.82;29.63;101206.91;102786;1294;62136;-79
2023/09/29 00:23:01;;;;;;;4.40;2.60;;;;;;;25.82;29.55;101206.54;102790;1294;63424;-82
2023/09/29 00:25:27;;;;;;;5.80;2.70;;;;;;;25.82;29.56;101208.14;102763;1297;62272;-81
2023/09/29 00:27:53;;;;;;;4.80;2.90;;;;;;;25.82;29.61;101207.96;102739;1294;62547;-81
2023/09/29 00:30:19;;;;;;;4.80;2.80;;;;;;;25.82;29.61;101211.05;102710;1294;62342;-82
2023/09/29 00:32:49;;;;;;;6.60;2.90;;;;;;;25.82;29.57;101209.27;102804;1295;62300;-80
2023/09/29 00:35:24;;;;;;;4.80;2.70;;;;;;;25.82;29.47;101208.36;102845;1294;64754;-81
2023/09/29 00:37:54;;;;;;;5.50;2.90;;;;;;;25.82;29.43;101211.44;102735;1292;67603;-81
2023/09/29 00:40:20;;;;;;;4.60;2.90;;;;;;;25.82;29.61;101212.50;102785;1297;62178;-81
2023/09/29 00:42:48;;;;;;;4.00;2.60;;;;;;;25.82;29.48;101210.87;102706;1300;62248;-81
2023/09/29 00:45:16;;;;;;;5.10;2.70;;;;;;;25.82;29.41;101212.89;102756;1294;63701;-82
2023/09/29 00:47:43;;;;;;;5.00;3.00;;;;;;;25.82;29.46;101213.27;102749;1297;66680;-82
2023/09/29 00:50:09;;;;;;;3.70;2.70;;;;;;;25.81;29.58;101208.07;102649;1293;63307;-81
2023/09/29 00:52:38;;;;;;;4.20;2.70;;;;;;;25.81;29.40;101212.04;102697;1293;62704;-81
2023/09/29 00:55:11;;;;;;;5.00;3.00;;;;;;;25.81;29.50;101209.33;102814;1292;63705;-80
2023/09/29 00:57:40;;;;;;;5.80;2.70;;;;;;;25.81;29.62;101208.64;102811;1293;66627;-81
2023/09/29 01:00:21;;;;;;;4.30;2.80;;;;;;;25.81;29.63;101210.61;102782;1294;62232;-81
2023/09/29 01:02:48;;;;;;;4.10;2.70;;;;;;;25.80;29.63;101214.98;102760;1294;63336;-81
2023/09/29 01:05:14;;;;;;;4.60;2.80;;;;;;;25.80;29.54;101213.36;102787;1294;63737;-81
2023/09/29 01:07:42;;;;;;;5.20;2.80;;;;;;;25.80;29.55;101211.34;102760;1292;63314;-80
2023/09/29 01:10:10;;;;;;;5.00;2.90;;;;;;;25.80;29.79;101210.64;102730;1292;62123;-81
2023/09/29 01:12:36;;;;;;;3.80;2.60;;;;;;;25.80;29.64;101212.29;102836;1292;62121;-81
2023/09/29 01:15:03;;;;;;;4.20;2.70;;;;;;;25.80;29.54;101215.70;102785;1297;62162;-81
2023/09/29 01:17:29;;;;;;;5.00;2.80;;;;;;;25.80;29.55;101213.03;102719;1295;62209;-81
2023/09/29 01:19:54;;;;;;;6.30;2.90;;;;;;;25.81;29.56;101214.59;102749;1297;63490;-82
2023/09/29 01:22:21;;;;;;;4.90;2.70;;;;;;;25.80;29.68;101209.61;102754;1295;63388;-81
2023/09/29 01:24:47;;;;;;;5.10;2.80;;;;;;;25.80;29.48;101211.73;102775;1293;62134;-79
2023/09/29 01:27:13;;;;;;;5.70;2.90;;;;;;;25.80;29.52;101215.86;102742;1297;62247;-80
2023/09/29 01:29:41;;;;;;;6.00;3.00;;;;;;;25.80;29.62;101211.73;102682;1295;63558;-79
2023/09/29 01:32:12;;;;;;;5.70;2.80;;;;;;;25.79;29.50;101215.95;102765;1296;63218;-81
2023/09/29 01:34:38;;;;;;;4.10;2.60;;;;;;;25.80;29.51;101219.00;102731;1293;72570;-81
2023/09/29 01:37:04;;;;;;;4.30;2.90;;;;;;;25.80;29.51;101220.45;102608;1299;62213;-80
2023/09/29 01:39:30;;;;;;;4.90;2.80;;;;;;;25.80;29.51;101224.26;102759;1295;62229;-82
2023/09/29 01:41:56;;;;;;;5.20;2.90;;;;;;;25.80;29.57;101223.50;102818;1294;62714;-81
2023/09/29 01:44:22;;;;;;;6.40;2.90;;;;;;;25.79;29.58;101226.95;102755;1294;63469;-81
2023/09/29 01:46:49;;;;;;;4.60;2.70;;;;;;;25.80;29.55;101228.02;102780;1293;62206;-79
2023/09/29 01:49:15;;;;;;;5.20;2.80;;;;;;;25.80;29.53;101229.30;102764;1294;62196;-81
2023/09/29 01:51:44;;;;;;;5.50;2.80;;;;;;;25.79;29.52;101226.80;102713;1294;63459;-81
2023/09/29 01:54:10;;;;;;;6.30;2.70;;;;;;;25.79;29.52;101228.79;102711;1294;63872;-82
2023/09/29 01:56:37;;;;;;;4.60;2.90;;;;;;;25.78;29.56;101230.09;102726;1294;62159;-81
2023/09/29 01:59:03;;;;;;;4.30;2.70;;;;;;;25.79;29.51;101233.16;102727;1296;63393;-81
2023/09/29 02:01:31;;;;;;;5.30;2.80;;;;;;;25.78;29.38;101231.54;102737;1293;63562;-80
2023/09/29 02:03:57;;;;;;;4.20;2.60;;;;;;;25.78;29.54;101229.36;102814;1295;63837;-79
2023/09/29 02:06:23;;;;;;;6.10;2.70;;;;;;;25.78;29.53;101228.31;102733;1294;63485;-81
2023/09/29 02:08:48;;;;;;;6.70;2.90;;;;;;;25.78;29.48;101228.86;102722;1294;63390;-80
2023/09/29 02:11:14;;;;;;;4.90;3.00;;;;;;;25.78;29.51;101228.65;102782;1292;62188;-81
2023/09/29 02:13:39;;;;;;;5.60;2.80;;;;;;;25.78;29.41;101230.48;102743;1297;62186;-81
2023/09/29 02:16:12;;;;;;;4.40;2.50;;;;;;;25.78;29.39;101228.48;102676;1295;63776;-82
2023/09/29 02:18:38;;;;;;;5.90;2.80;;;;;;;25.78;29.48;101228.18;102761;1291;66702;-81
2023/09/29 02:21:06;;;;;;;4.60;2.60;;;;;;;25.78;29.49;101228.89;102748;1293;63273;-82
2023/09/29 02:23:33;;;;;;;5.80;2.70;;;;;;;25.78;29.50;101231.56;102818;1294;63092;-81
2023/09/29 02:26:00;;;;;;;4.60;2.80;;;;;;;25.78;29.51;101230.14;102724;1294;63594;-81
2023/09/29 02:28:30;;;;;;;4.90;2.60;;;;;;;25.78;29.71;101227.44;102707;1293;62263;-81
2023/09/29 02:30:57;;;;;;;5.20;2.90;;;;;;;25.78;29.51;101224.03;102816;1293;62089;-81
2023/09/29 02:33:24;;;;;;;4.30;2.80;;;;;;;25.77;29.46;101224.24;102753;1294;62179;-82
2023/09/29 02:35:50;;;;;;;4.30;2.80;;;;;;;25.78;29.35;101225.30;102654;1297;74379;-79
2023/09/29 02:38:16;;;;;;;5.20;2.60;;;;;;;25.77;29.48;101225.86;102676;1294;62240;-80
2023/09/29 02:40:42;;;;;;;5.00;2.80;;;;;;;25.77;29.46;101225.36;102782;1295;63443;-81
2023/09/29 02:43:09;;;;;;;4.30;2.70;;;;;;;25.77;29.53;101224.08;102716;1293;62160;-81
2023/09/29 02:45:37;;;;;;;4.20;2.60;;;;;;;25.77;29.50;101222.98;102797;1297;62196;-79
2023/09/29 02:48:03;;;;;;;4.50;2.50;;;;;;;25.77;29.51;101222.11;102754;1291;66412;-79
2023/09/29 02:50:29;;;;;;;3.60;2.40;;;;;;;25.77;29.47;101223.23;102715;1296;62839;-80
2023/09/29 02:52:55;;;;;;;6.00;2.70;;;;;;;25.77;29.37;101226.47;102744;1294;62157;-81
2023/09/29 02:55:20;;;;;;;5.30;2.70;;;;;;;25.77;29.54;101225.92;102686;1297;62342;-81
2023/09/29 02:57:46;;;;;;;4.50;2.70;;;;;;;25.77;29.36;101228.79;102767;1294;62223;-81
2023/09/29 03:00:18;;;;;;;4.40;2.70;;;;;;;25.77;29.54;101227.17;102725;1292;62201;-81
2023/09/29 03:02:43;;;;;;;5.60;2.80;;;;;;;25.77;29.29;101222.68;102760;1297;62211;-81
2023/09/29 03:05:09;;;;;;;5.20;3.10;;;;;;;25.75;29.36;101223.30;102415;1292;481823;-80
2023/09/29 03:07:36;;;;;;;4.60;3.00;;;;;;;25.76;29.49;101228.34;102682;1297;62190;-81
2023/09/29 03:10:05;;;;;;;4.60;2.70;;;;;;;25.75;29.50;101227.96;102791;1294;62265;-81
2023/09/29 03:12:31;;;;;;;5.40;2.70;;;;;;;25.75;29.38;101228.33;102739;1292;62707;-81
2023/09/29 03:14:57;;;;;;;5.10;2.80;;;;;;;25.75;29.43;101232.17;102724;1292;62297;-81
2023/09/29 03:17:22;;;;;;;7.20;3.00;;;;;;;25.75;29.47;101232.15;102753;1292;63873;-81
2023/09/29 03:19:49;;;;;;;5.20;3.00;;;;;;;25.75;29.37;101235.39;102675;1294;62262;-80
2023/09/29 03:22:14;;;;;;;4.30;2.60;;;;;;;25.76;29.46;101239.69;102732;1297;62208;-81
2023/09/29 03:24:40;;;;;;;5.20;2.80;;;;;;;25.75;29.47;101235.63;102761;1294;62376;-81
2023/09/29 03:27:06;;;;;;;4.10;2.40;;;;;;;25.75;29.42;101236.15;102733;1294;62160;-79
2023/09/29 03:29:31;;;;;;;5.90;2.80;;;;;;;25.74;29.37;101240.13;102704;1297;62665;-80
2023/09/29 03:31:57;;;;;;;4.80;2.90;;;;;;;25.74;29.40;101240.17;102652;1293;63425;-81
2023/09/29 03:34:23;;;;;;;7.10;2.70;;;;;;;25.74;29.40;101242.70;102776;1293;62298;-82
2023/09/29 03:36:50;;;;;;;4.90;2.90;;;;;;;25.74;29.41;101240.73;102714;1294;62198;-81
2023/09/29 03:39:17;;;;;;;4.60;3.00;;;;;;;25.74;29.36;101243.09;102744;1294;62135;-81
2023/09/29 03:41:43;;;;;;;6.80;3.40;;;;;;;25.73;29.44;101242.60;102709;1292;62192;-81
2023/09/29 03:44:09;;;;;;;6.30;2.80;;;;;;;25.73;29.37;101244.41;102759;1297;63436;-80
2023/09/29 03:46:35;;;;;;;6.20;3.10;;;;;;;25.72;29.30;101240.52;102735;1294;63432;-80
2023/09/29 03:49:01;;;;;;;4.90;3.00;;;;;;;25.72;29.13;101239.83;102798;1294;63179;-81
2023/09/29 03:51:26;;;;;;;6.70;3.30;;;;;;;25.71;29.04;101237.92;102758;1293;63886;-79
2023/09/29 03:53:52;;;;;;;8.00;3.30;;;;;;;25.70;29.00;101241.76;102747;1294;62221;-81
2023/09/29 03:56:23;;;;;;;8.30;3.50;;;;;;;25.69;28.91;101240.39;102808;1294;63564;-80
2023/09/29 03:58:55;;;;;;;5.70;3.40;;;;;;;25.68;28.84;101241.20;102835;1291;62131;-81
2023/09/29 04:01:21;;;;;;;8.20;3.70;;;;;;;25.67;28.68;101243.66;102737;1294;63789;-81
2023/09/29 04:03:47;;;;;;;9.90;3.90;;;;;;;25.66;28.63;101246.09;102795;1297;62446;-81
2023/09/29 04:06:12;;;;;;;11.60;3.80;;;;;;;25.65;28.72;101244.91;102710;1292;63446;-79
2023/09/29 04:08:38;;;;;;;9.70;3.80;;;;;;;25.65;28.82;101242.96;102839;1294;62116;-79
2023/09/29 04:11:05;;;;;;;11.10;3.60;;;;;;;25.63;28.77;101242.36;103069;1292;62220;-82
2023/09/29 04:13:31;;;;;;;10.70;3.60;;;;;;;25.63;28.86;101240.41;102787;1293;62170;-82
2023/09/29 04:15:59;;;;;;;8.00;3.60;;;;;;;25.62;28.80;101244.09;102800;1293;62723;-82
2023/09/29 04:18:24;;;;;;;8.10;3.70;;;;;;;25.60;28.63;101242.27;102819;1294;62918;-82
2023/09/29 04:20:50;;;;;;;6.60;3.50;;;;;;;25.59;28.64;101243.45;102793;1294;63542;-82
2023/09/29 04:23:16;;;;;;;7.40;4.10;;;;;;;25.56;28.60;101244.02;102871;1295;62233;-82
2023/09/29 04:25:43;;;;;;;7.40;3.50;;;;;;;25.53;28.29;101241.63;102758;1292;62322;-82
2023/09/29 04:28:08;;;;;;;10.00;4.00;;;;;;;25.50;28.22;101243.67;102793;1292;62138;-82
2023/09/29 04:30:34;;;;;;;11.70;3.80;;;;;;;25.48;28.08;101247.81;102798;1295;62143;-81
2023/09/29 04:33:00;;;;;;;8.80;3.70;;;;;;;25.46;28.10;101249.52;102851;1294;62413;-82
2023/09/29 04:35:25;;;;;;;8.90;3.40;;;;;;;25.46;28.00;101250.84;102807;1294;62152;-81
2023/09/29 04:37:51;;;;;;;6.40;3.40;;;;;;;25.45;27.91;101251.96;103109;1294;62321;-82
2023/09/29 04:40:17;;;;;;;5.40;2.90;;;;;;;25.46;28.04;101249.57;103069;1293;62190;-83
2023/09/29 04:42:42;;;;;;;7.40;3.20;;;;;;;25.46;28.18;101251.53;103169;1293;62192;-81
2023/09/29 04:45:08;;;;;;;9.80;3.50;;;;;;;25.47;28.23;101257.97;102989;1293;62319;-82
2023/09/29 04:47:33;;;;;;;8.10;3.40;;;;;;;25.46;28.28;101258.05;103192;1292;62108;-82
2023/09/29 04:49:59;;;;;;;7.00;4.20;;;;;;;25.46;28.35;101257.52;103701;1296;62191;-82
2023/09/29 04:52:28;;;;;;;11.40;3.80;;;;;;;25.46;28.26;101259.84;103475;1293;62179;-82
2023/09/29 04:54:53;;;;;;;19.30;3.90;;;;;;;25.44;28.35;101261.41;103803;1294;62108;-82
2023/09/29 04:57:19;;;;;;;14.60;4.40;;;;;;;25.43;28.42;101264.56;104066;1292;62137;-82
2023/09/29 04:59:45;;;;;;;14.10;4.20;;;;;;;25.41;28.35;101266.38;104112;1292;62131;-82
2023/09/29 05:02:11;;;;;;;23.30;4.80;;;;;;;25.40;28.35;101270.45;103912;1294;62173;-81
2023/09/29 05:04:36;;;;;;;11.30;3.90;;;;;;;25.39;28.37;101267.80;104096;1291;62203;-81
2023/09/29 05:07:02;;;;;;;21.10;4.00;;;;;;;25.37;28.49;101268.52;104045;1294;62184;-81
2023/09/29 05:09:27;;;;;;;15.80;4.50;;;;;;;25.38;28.41;101270.37;104070;1292;62078;-82
2023/09/29 05:11:53;;;;;;;12.70;4.20;;;;;;;25.38;28.44;101271.31;104001;1295;62231;-81
2023/09/29 05:14:19;;;;;;;13.90;4.70;;;;;;;25.39;28.40;101264.55;103982;1295;62215;-81
2023/09/29 05:16:44;;;;;;;13.40;4.20;;;;;;;25.40;28.31;101266.95;104216;1293;62192;-82
2023/09/29 05:19:10;;;;;;;11.20;4.40;;;;;;;25.41;28.39;101264.38;103767;1294;63891;-82
2023/09/29 05:21:36;;;;;;;15.30;4.10;;;;;;;25.42;28.31;101263.06;103723;1293;62109;-81
2023/09/29 05:24:02;;;;;;;13.20;4.20;;;;;;;25.42;28.03;101267.05;103645;1293;67759;-82
2023/09/29 05:26:28;;;;;;;9.40;4.50;;;;;;;25.41;27.98;101267.96;103622;1296;62154;-81
2023/09/29 05:28:55;;;;;;;11.70;4.50;;;;;;;25.42;27.88;101264.65;103825;1294;62784;-81
2023/09/29 05:31:21;;;;;;;12.60;4.50;;;;;;;25.41;27.93;101266.70;103716;1293;63893;-81
2023/09/29 05:33:47;;;;;;;10.60;4.10;;;;;;;25.41;27.89;101270.83;103935;1293;62032;-81
2023/09/29 05:36:12;;;;;;;9.70;4.70;;;;;;;25.42;27.85;101268.30;103832;1294;62088;-81
2023/09/29 05:38:38;;;;;;;10.20;4.50;;;;;;;25.42;27.81;101272.42;103864;1294;62204;-82
2023/09/29 05:41:03;;;;;;;14.90;4.40;;;;;;;25.41;27.77;101271.07;103941;1291;64519;-81
2023/09/29 05:43:30;;;;;;;13.10;4.50;;;;;;;25.41;27.93;101270.54;104128;1294;72207;-81
2023/09/29 05:45:56;;;;;;;9.60;4.40;;;;;;;25.39;27.84;101270.84;104086;1295;62185;-82
2023/09/29 05:48:22;;;;;;;12.00;4.40;;;;;;;25.39;27.81;101271.55;104316;1293;62140;-81
2023/09/29 05:50:47;;;;;;;8.50;4.30;;;;;;;25.40;27.81;101270.43;104018;1293;62308;-81
2023/09/29 05:53:13;;;;;;;16.70;4.60;;;;;;;25.39;27.76;101272.26;103865;1295;62803;-82
2023/09/29 05:55:38;;;;;;;17.10;4.60;;;;;;;25.37;27.78;101273.20;104187;1292;62131;-81
2023/09/29 05:58:04;;;;;;;17.60;4.50;;;;;;;25.34;28.01;101270.16;104014;1296;62216;-82
2023/09/29 06:00:30;;;;;;;16.80;4.50;;;;;;;25.34;28.25;101273.77;103956;1294;62199;-81
2023/09/29 06:02:56;;;;;;;21.70;5.10;;;;;;;25.31;28.41;101275.84;104347;1295;62089;-81
2023/09/29 06:05:22;;;;;;;20.90;4.50;;;;;;;25.29;28.44;101275.65;103842;1297;62236;-82
2023/09/29 06:07:47;;;;;;;18.30;5.00;;;;;;;25.29;28.70;101274.88;103863;1294;62230;-81
2023/09/29 06:10:13;;;;;;;14.10;4.60;;;;;;;25.31;28.78;101280.81;103932;1294;62118;-82
2023/09/29 06:12:39;;;;;;;15.60;4.50;;;;;;;25.33;28.74;101278.52;103979;1294;62154;-81
2023/09/29 06:15:06;;;;;;;23.40;5.20;;;;;;;25.34;28.62;101279.17;103939;1293;62207;-81
2023/09/29 06:17:31;;;;;;;17.50;4.90;;;;;;;25.33;28.64;101277.13;104051;1294;73529;-82
2023/09/29 06:19:57;;;;;;;15.40;4.70;;;;;;;25.31;28.51;101279.79;103865;1294;61326;-82
2023/09/29 06:22:24;;;;;;;14.80;4.90;;;;;;;25.26;28.48;101280.16;103829;1294;63353;-82
2023/09/29 06:24:50;;;;;;;11.50;4.60;;;;;;;25.19;28.38;101278.19;104129;1294;61979;-82
2023/09/29 06:27:15;;;;;;;14.50;4.80;;;;;;;25.12;28.41;101281.86;104075;1294;60132;-82
2023/09/29 06:29:41;;;;;;;13.60;5.10;;;;;;;25.06;28.33;101281.45;103968;1293;62182;-82
2023/09/29 06:32:08;;;;;;;11.30;4.90;;;;;;;25.03;28.38;101281.50;104452;1293;62039;-80
2023/09/29 06:34:35;;;;;;;13.80;4.60;;;;;;;25.04;28.44;101281.20;105810;1290;60179;-81
2023/09/29 06:37:01;;;;;;;13.80;4.70;;;;;;;25.05;28.38;101279.73;104657;1292;60207;-80
2023/09/29 06:39:27;;;;;;;14.00;4.90;;;;;;;24.99;28.20;101281.30;104123;1294;62137;-81
2023/09/29 06:41:53;;;;;;;13.40;4.80;;;;;;;24.94;28.08;101287.05;104202;1293;61455;-80
2023/09/29 06:44:18;;;;;;;11.10;4.40;;;;;;;24.90;28.09;101290.80;104045;1296;62137;-80
2023/09/29 06:46:44;;;;;;;18.00;4.70;;;;;;;24.90;28.16;101292.08;104103;1294;62884;-81
2023/09/29 06:49:09;;;;;;;12.60;4.90;;;;;;;24.85;28.11;101285.98;104255;1292;60041;-81
2023/09/29 06:51:36;;;;;;;18.00;5.00;;;;;;;24.88;28.17;101287.92;104181;1295;72581;-82
2023/09/29 06:54:02;;;;;;;20.20;4.70;;;;;;;24.90;28.34;101287.39;104232;1294;62208;-80
2023/09/29 06:56:28;;;;;;;21.50;5.10;;;;;;;24.93;28.44;101281.19;104186;1293;62091;-81
2023/09/29 06:58:57;;;;;;;22.80;4.90;;;;;;;24.98;28.63;101281.05;103973;1293;59913;-81
2023/09/29 07:01:24;;;;;;;13.60;4.80;;;;;;;24.98;28.82;101281.16;104206;1294;72436;-81
2023/09/29 07:03:50;;;;;;;16.80;4.90;;;;;;;24.94;28.87;101284.34;104251;1293;66659;-81
2023/09/29 07:06:16;;;;;;;14.90;4.80;;;;;;;24.95;28.89;101288.66;104264;1293;62125;-82
2023/09/29 07:08:42;;;;;;;10.80;4.70;;;;;;;24.89;28.96;101287.48;104368;1294;62139;-82
2023/09/29 07:11:07;;;;;;;12.80;4.90;;;;;;;24.89;28.94;101290.36;104401;1293;62094;-81
2023/09/29 07:13:33;;;;;;;14.70;4.70;;;;;;;24.90;28.95;101292.98;104356;1293;62116;-82
2023/09/29 07:15:58;;;;;;;15.90;5.20;;;;;;;24.92;29.06;101290.96;104260;1294;62151;-81
2023/09/29 07:18:24;;;;;;;12.90;5.10;;;;;;;24.98;29.33;101291.42;104348;1293;62051;-81
2023/09/29 07:20:52;;;;;;;16.10;5.20;;;;;;;25.01;29.19;101289.23;104067;1294;62113;-82
2023/09/29 07:23:24;;;;;;;17.40;5.40;;;;;;;25.05;29.28;101286.59;105984;1293;63895;-80
2023/09/29 07:25:52;;;;;;;14.70;5.30;;;;;;;25.08;29.38;101288.62;104745;1293;66572;-82
2023/09/29 07:28:18;;;;;;;17.70;4.90;;;;;;;25.12;29.23;101292.81;103940;1292;62109;-80
2023/09/29 07:30:44;;;;;;;12.90;5.10;;;;;;;25.16;29.24;101293.94;104094;1294;62822;-80
2023/09/29 07:33:10;;;;;;;15.80;4.80;;;;;;;25.18;29.06;101292.73;104071;1296;62774;-80
2023/09/29 07:35:38;;;;;;;13.80;5.00;;;;;;;25.20;29.07;101294.35;104081;1294;62195;-80
2023/09/29 07:38:04;;;;;;;11.40;4.90;;;;;;;25.19;28.94;101294.39;103834;1293;62124;-81
2023/09/29 07:40:32;;;;;;;14.70;5.50;;;;;;;25.20;28.88;101297.09;104123;1292;62013;-81
2023/09/29 07:42:58;;;;;;;14.50;5.50;;;;;;;25.20;28.78;101301.88;104274;1290;72371;-81
2023/09/29 07:45:25;;;;;;;17.10;5.50;;;;;;;25.20;28.73;101303.33;103700;1294;62158;-81
2023/09/29 07:47:50;;;;;;;18.90;5.80;;;;;;;25.16;28.64;101295.61;103978;1293;62209;-81
2023/09/29 07:50:17;;;;;;;18.50;6.00;;;;;;;25.17;28.64;101303.60;104203;1295;62076;-81
2023/09/29 07:52:42;;;;;;;18.80;5.70;;;;;;;25.16;28.42;101308.18;104244;1293;61987;-83
2023/09/29 07:55:09;;;;;;;14.70;5.80;;;;;;;25.12;28.40;101304.02;104301;1294;62140;-82
2023/09/29 07:57:35;;;;;;;23.40;6.70;;;;;;;25.13;28.54;101306.27;104508;1291;62173;-81
2023/09/29 08:00:01;;;;;;;15.10;5.40;;;;;;;25.16;28.97;101302.06;104634;1294;62287;-81
2023/09/29 08:02:27;;;;;;;25.40;6.40;;;;;;;25.16;28.86;101306.26;104699;1294;60150;-82
2023/09/29 08:04:52;;;;;;;26.70;5.70;;;;;;;25.16;28.99;101302.64;104523;1294;62179;-82
2023/09/29 08:07:19;;;;;;;19.50;6.50;;;;;;;25.19;29.08;101307.58;104500;1293;75274;-81
2023/09/29 08:09:45;;;;;;;15.50;5.50;;;;;;;25.20;28.97;101306.98;104535;1293;61969;-81
2023/09/29 08:12:11;;;;;;;16.50;6.00;;;;;;;25.19;28.74;101304.32;104495;1294;62090;-81
2023/09/29 08:14:37;;;;;;;15.30;5.70;;;;;;;25.16;28.64;101297.35;104626;1293;62211;-81
2023/09/29 08:17:02;;;;;;;15.00;5.80;;;;;;;25.15;28.50;101297.79;104306;1291;62080;-80
2023/09/29 08:19:29;;;;;;;21.30;5.90;;;;;;;25.16;28.52;101298.29;104375;1293;62093;-81
2023/09/29 08:21:54;;;;;;;26.10;5.90;;;;;;;25.19;28.43;101299.30;104563;1292;62077;-81
2023/09/29 08:24:20;;;;;;;16.60;6.10;;;;;;;25.23;28.44;101298.99;104510;1293;62226;-82
2023/09/29 08:26:45;;;;;;;13.50;5.80;;;;;;;25.27;28.50;101295.02;104060;1296;72534;-83
2023/09/29 08:29:15;;;;;;;19.60;6.30;;;;;;;25.29;28.54;101293.23;104215;1294;62083;-81
2023/09/29 08:31:42;;;;;;;18.30;5.80;;;;;;;25.32;28.41;101294.48;103852;1298;62222;-81
2023/09/29 08:34:08;;;;;;;12.30;5.50;;;;;;;25.33;28.41;101292.58;103912;1294;62242;-81
2023/09/29 08:36:33;;;;;;;17.00;5.70;;;;;;;25.35;28.34;101284.87;104106;1293;62240;-81
2023/09/29 08:38:59;;;;;;;20.70;6.30;;;;;;;25.37;28.32;101283.98;103910;1292;62262;-81
2023/09/29 08:41:29;;;;;;;22.30;6.50;;;;;;;25.37;28.16;101285.77;103885;1296;62075;-81
2023/09/29 08:43:54;;;;;;;14.10;6.00;;;;;;;25.36;28.11;101287.36;103935;1294;62104;-81
2023/09/29 08:46:23;;;;;;;17.10;6.20;;;;;;;25.35;28.12;101283.14;103983;1294;62097;-82
2023/09/29 08:48:49;;;;;;;22.60;5.80;;;;;;;25.35;28.09;101285.62;104188;1294;66669;-82
2023/09/29 08:51:15;;;;;;;30.30;6.20;;;;;;;25.35;28.18;101284.18;104289;1294;62186;-81
2023/09/29 08:53:44;;;;;;;31.70;6.60;;;;;;;25.36;28.16;101280.30;104763;1292;60649;-81
2023/09/29 08:56:16;;;;;;;30.40;6.70;;;;;;;25.38;28.21;101277.24;105122;1294;72505;-82
2023/09/29 08:58:42;;;;;;;30.30;6.00;;;;;;;25.42;28.75;101274.94;104826;1292;75131;-81
2023/09/29 09:01:11;;;;;;;24.10;6.40;;;;;;;25.47;28.95;101270.42;104857;1292;59934;-82
2023/09/29 09:03:37;;;;;;;;;;;;;;;25.50;28.81;101266.39;104485;1294;62082;-80
2023/09/29 09:06:16;;;;;;;26.70;6.40;;;;;;;25.48;28.85;101264.35;104439;1294;62026;-82
2023/09/29 09:08:43;;;;;;;19.30;5.90;;;;;;;25.51;28.99;101258.85;104535;1293;75127;-81
2023/09/29 09:11:09;;;;;;;33.70;5.50;;;;;;;25.54;28.81;101258.27;104593;1292;62267;-81
2023/09/29 09:13:35;;;;;;;18.70;5.50;;;;;;;25.56;28.56;101257.00;104629;1294;62130;-82
2023/09/29 09:16:00;;;;;;;30.40;5.50;;;;;;;25.58;28.38;101256.33;104194;1291;63814;-81
2023/09/29 09:18:27;;;;;;;24.20;5.40;;;;;;;25.61;28.45;101254.45;104149;1293;62133;-80
2023/09/29 09:20:53;;;;;;;23.60;5.20;;;;;;;25.64;28.26;101256.39;104115;1293;62130;-80
2023/09/29 09:23:19;;;;;;;20.90;5.30;;;;;;;25.66;28.43;101257.30;104306;1294;62853;-80
2023/09/29 09:25:45;;;;;;;26.10;5.30;;;;;;;25.66;28.25;101258.31;104327;1292;62131;-81
2023/09/29 09:28:18;;;;;;;21.30;5.40;;;;;;;25.67;28.07;101263.13;104066;1297;62156;-79
2023/09/29 09:30:46;;;;;;;22.50;5.50;;;;;;;25.68;28.05;101261.44;104568;1293;66673;-81
2023/09/29 09:33:21;;;;;;;20.60;5.00;;;;;;;25.69;28.04;101261.15;104330;1293;62157;-81
2023/09/29 09:35:48;;;;;;;17.60;5.00;;;;;;;25.70;27.96;101257.66;104156;1291;62544;-81
2023/09/29 09:38:14;;;;;;;17.90;4.90;;;;;;;25.71;27.95;101263.31;104605;1294;63988;-82
2023/09/29 09:40:40;;;;;;;15.90;4.80;;;;;;;25.73;27.91;101257.74;104547;1291;62080;-80
2023/09/29 09:43:08;;;;;;;20.30;4.90;;;;;;;25.74;27.92;101261.05;103959;1294;62234;-81
2023/09/29 09:45:39;;;;;;;13.70;5.00;;;;;;;25.76;28.08;101259.48;104152;1294;63112;-82
2023/09/29 09:48:09;;;;;;;15.40;4.30;;;;;;;25.77;27.99;101258.15;104662;1292;64011;-82
2023/09/29 09:50:36;;;;;;;15.60;4.60;;;;;;;25.79;28.00;101256.59;104360;1294;66840;-83
2023/09/29 09:53:04;;;;;;;17.10;5.00;;;;;;;25.80;27.98;101254.70;104486;1291;62129;-82
2023/09/29 09:55:40;;;;;;;23.20;4.80;;;;;;;25.80;27.91;101251.39;104048;1294;62134;-82
2023/09/29 09:58:12;;;;;;;16.90;4.90;;;;;;;25.81;27.88;101249.49;104175;1294;65234;-80
2023/09/29 10:00:40;;;;;;;21.00;5.20;;;;;;;25.83;27.76;101249.91;104442;1295;66714;-82
2023/09/29 10:03:11;;;;;;;16.70;4.50;;;;;;;25.84;27.75;101254.30;104651;1291;62125;-79
2023/09/29 10:05:41;;;;;;;19.00;5.00;;;;;;;25.86;27.56;101247.85;104755;1291;62092;-79
2023/09/29 10:08:10;;;;;;;19.40;5.00;;;;;;;25.86;27.54;101242.08;104713;1291;63945;-81
2023/09/29 10:10:41;;;;;;;24.60;5.20;;;;;;;25.87;27.48;101241.08;104241;1293;66501;-80
2023/09/29 10:13:11;;;;;;;17.50;4.80;;;;;;;25.88;27.64;101245.69;104487;1294;62138;-80
2023/09/29 10:15:43;;;;;;;18.90;4.90;;;;;;;25.89;27.54;101239.80;104650;1294;62213;-79
2023/09/29 10:18:19;;;;;;;20.30;4.90;;;;;;;25.91;27.70;101239.13;104323;1296;63835;-79
2023/09/29 10:21:00;;;;;;;13.90;4.50;;;;;;;25.92;27.57;101238.48;104535;1291;67283;-81
2023/09/29 10:23:26;;;;;;;21.30;4.00;;;;;;;25.92;27.52;101231.95;104515;1293;62172;-81
2023/09/29 10:25:59;;;;;;;18.60;4.70;;;;;;;25.92;27.60;101230.71;104437;1293;62207;-80
2023/09/29 10:28:32;;;;;;;15.50;5.00;;;;;;;25.93;27.59;101229.75;104573;1294;63881;-81
2023/09/29 10:31:14;;;;;;;17.40;4.90;;;;;;;25.94;27.61;101232.91;104234;1293;66714;-80
2023/09/29 10:33:55;;;;;;;25.10;4.50;;;;;;;25.94;27.58;101229.32;104001;1292;62107;-80
2023/09/29 10:36:23;;;;;;;12.30;4.50;;;;;;;25.95;27.48;101220.93;103992;1293;62132;-81
2023/09/29 10:38:49;;;;;;;16.50;4.10;;;;;;;25.95;27.40;101222.55;103946;1297;63690;-80
2023/09/29 10:41:19;;;;;;;20.90;4.90;;;;;;;25.96;27.39;101218.52;103719;1294;76805;-80
2023/09/29 10:43:50;;;;;;;12.20;4.30;;;;;;;25.95;27.34;101215.47;103718;1292;62233;-80
2023/09/29 10:46:17;;;;;;;14.40;4.40;;;;;;;25.95;27.27;101215.70;104063;1294;62158;-81
2023/09/29 10:48:46;;;;;;;13.30;4.60;;;;;;;25.95;27.21;101207.38;105052;1291;73686;-80
2023/09/29 10:51:31;;;;;;;10.90;4.10;;;;;;;25.96;27.27;101208.44;104113;1291;66680;-80
2023/09/29 10:54:02;;;;;;;16.20;4.30;;;;;;;25.96;27.22;101204.64;104033;1293;62128;-83
2023/09/29 10:56:29;;;;;;;15.40;4.00;;;;;;;25.97;27.17;101201.84;103843;1292;61982;-80
2023/09/29 10:58:55;;;;;;;15.00;4.10;;;;;;;25.98;27.34;101201.95;104186;1293;63850;-79
2023/09/29 11:01:22;;;;;;;19.10;4.40;;;;;;;25.99;27.25;101202.23;104272;1291;62098;-81
2023/09/29 11:03:48;;;;;;;24.40;4.30;;;;;;;26.00;27.37;101200.48;104304;1297;62129;-82
2023/09/29 11:06:18;;;;;;;20.20;5.00;;;;;;;26.00;27.24;101195.39;105732;1293;59794;-81
2023/09/29 11:08:59;;;;;;;19.00;4.30;;;;;;;26.02;27.38;101196.92;105679;1293;63963;-81
2023/09/29 11:11:25;;;;;;;18.30;4.30;;;;;;;26.04;27.38;101189.91;105801;1291;67060;-81